Time;durP1;ratioP1;P1;durP2;ratioP2;P2;SDS_P1;SDS_P2;PMS_P1;PMS_P2;Temp;Humidity;BMP_temperature;BMP_pressure;BME280_temperature;BME280_humidity;BME280_pressure;Samples;Min_cycle;Max_cycle;Signal;HPM_P1;HPM_P2
2023/11/20 00:01:58;;;;;;;7.88;3.63;;;10.00;99.90;;;;;;5015222;28;20123;-71
2023/11/20 00:04:25;;;;;;;5.78;3.25;;;10.00;99.90;;;;;;5012421;28;20047;-71
2023/11/20 00:06:52;;;;;;;5.93;3.20;;;10.00;99.90;;;;;;5021660;28;20528;-72
2023/11/20 00:09:19;;;;;;;7.60;3.00;;;10.10;99.90;;;;;;5025030;28;20045;-71
2023/11/20 00:11:46;;;;;;;5.35;3.05;;;10.00;99.90;;;;;;5021584;28;20530;-71
2023/11/20 00:14:13;;;;;;;9.55;3.90;;;10.00;99.90;;;;;;5025867;28;20049;-70
2023/11/20 00:16:40;;;;;;;7.88;3.58;;;10.10;99.90;;;;;;5023307;28;20843;-72
2023/11/20 00:19:10;;;;;;;8.40;4.28;;;10.00;99.90;;;;;;5024800;28;20049;-71
2023/11/20 00:21:41;;;;;;;11.70;3.90;;;10.00;99.90;;;;;;5023901;28;20051;-72
2023/11/20 00:24:08;;;;;;;8.75;3.83;;;10.00;99.90;;;;;;5045567;28;20061;-71
2023/11/20 00:26:36;;;;;;;9.55;3.70;;;10.10;99.90;;;;;;5021254;28;20124;-72
2023/11/20 00:29:05;;;;;;;15.65;3.90;;;10.10;99.90;;;;;;5025464;28;20103;-71
2023/11/20 00:31:35;;;;;;;9.77;4.32;;;10.10;99.90;;;;;;5029699;28;20060;-70
2023/11/20 00:34:03;;;;;;;8.32;4.00;;;10.10;99.90;;;;;;5032166;28;20111;-70
2023/11/20 00:36:30;;;;;;;8.93;3.47;;;10.20;99.90;;;;;;5006009;28;20258;-72
2023/11/20 00:38:58;;;;;;;8.73;3.85;;;10.20;99.90;;;;;;5027521;28;20617;-72
2023/11/20 00:41:25;;;;;;;8.13;4.00;;;10.20;99.90;;;;;;5015826;28;20037;-72
2023/11/20 00:43:52;;;;;;;12.18;4.07;;;10.20;99.90;;;;;;5021467;28;20132;-72
2023/11/20 00:46:19;;;;;;;13.40;4.03;;;10.20;99.90;;;;;;5006315;28;20046;-72
2023/11/20 00:48:45;;;;;;;12.27;4.35;;;10.20;99.90;;;;;;5012121;28;20049;-72
2023/11/20 00:51:13;;;;;;;11.48;4.45;;;10.30;99.90;;;;;;5023152;28;20039;-72
2023/11/20 00:53:40;;;;;;;13.20;4.55;;;10.30;99.90;;;;;;5017359;28;20099;-71
2023/11/20 00:56:08;;;;;;;15.13;5.38;;;10.30;99.90;;;;;;5021510;28;20045;-71
2023/11/20 00:58:35;;;;;;;14.80;4.82;;;10.30;99.90;;;;;;5023689;28;20071;-72
2023/11/20 01:01:03;;;;;;;9.40;4.70;;;10.30;99.90;;;;;;5014244;28;20056;-72
2023/11/20 01:03:32;;;;;;;16.02;3.90;;;10.30;99.90;;;;;;5023616;28;20129;-71
2023/11/20 01:06:04;;;;;;;12.75;4.95;;;10.30;99.90;;;;;;5022092;28;20042;-71
2023/11/20 01:08:32;;;;;;;12.77;3.83;;;10.20;99.90;;;;;;5043704;28;20707;-72
2023/11/20 01:10:59;;;;;;;9.45;3.75;;;10.20;99.90;;;;;;5011063;28;20511;-72
2023/11/20 01:13:26;;;;;;;8.05;4.47;;;10.20;99.90;;;;;;5025655;28;20064;-72
2023/11/20 01:15:53;;;;;;;10.07;4.00;;;10.20;99.90;;;;;;5019642;28;20486;-72
2023/11/20 01:18:20;;;;;;;11.15;4.45;;;10.20;99.90;;;;;;5024837;28;20045;-71
2023/11/20 01:20:47;;;;;;;10.70;3.60;;;10.20;99.90;;;;;;5022882;28;20059;-71
2023/11/20 01:23:13;;;;;;;9.45;3.42;;;10.30;99.90;;;;;;5022827;28;20514;-71
2023/11/20 01:25:40;;;;;;;10.48;3.92;;;10.30;99.90;;;;;;5023777;28;20098;-71
2023/11/20 01:28:07;;;;;;;11.98;4.07;;;10.30;99.90;;;;;;5018089;28;20680;-72
2023/11/20 01:30:35;;;;;;;16.58;4.40;;;10.30;99.90;;;;;;5013982;28;20765;-71
2023/11/20 01:33:02;;;;;;;12.35;4.18;;;10.30;99.90;;;;;;5004265;28;20052;-72
2023/11/20 01:35:29;;;;;;;7.53;3.63;;;10.30;99.90;;;;;;5026757;28;20076;-73
2023/11/20 01:37:56;;;;;;;7.88;4.07;;;10.30;99.90;;;;;;5023226;28;20053;-72
2023/11/20 01:40:23;;;;;;;14.43;3.92;;;10.30;99.90;;;;;;5020831;28;20056;-72
2023/11/20 01:42:50;;;;;;;9.27;3.70;;;10.20;99.90;;;;;;5020167;28;20037;-71
2023/11/20 01:45:18;;;;;;;10.05;4.07;;;10.20;99.90;;;;;;5027041;28;20041;-72
2023/11/20 01:47:46;;;;;;;14.73;4.50;;;10.20;99.90;;;;;;5021984;28;20083;-72
2023/11/20 01:50:14;;;;;;;13.27;3.85;;;10.20;99.90;;;;;;5020103;28;20037;-70
2023/11/20 01:52:44;;;;;;;7.47;4.43;;;10.30;99.90;;;;;;5022344;28;20037;-71
2023/11/20 01:55:13;;;;;;;10.27;4.25;;;10.20;99.90;;;;;;5024572;28;20332;-71
2023/11/20 01:57:44;;;;;;;4.93;4.00;;;10.30;99.90;;;;;;5020910;28;20095;-71
2023/11/20 02:00:13;;;;;;;11.90;5.13;;;10.30;99.90;;;;;;5028461;28;20059;-71
2023/11/20 02:02:42;;;;;;;14.52;5.05;;;10.30;99.90;;;;;;5025549;28;20068;-74
2023/11/20 02:05:09;;;;;;;14.95;5.50;;;10.30;99.90;;;;;;5024736;28;20041;-73
2023/11/20 02:07:36;;;;;;;22.83;5.93;;;10.30;99.90;;;;;;5023582;28;20044;-72
2023/11/20 02:10:07;;;;;;;14.60;5.18;;;10.30;99.90;;;;;;5021806;28;20052;-71
2023/11/20 02:12:36;;;;;;;12.43;5.78;;;10.30;99.90;;;;;;5020100;28;20423;-71
2023/11/20 02:15:05;;;;;;;17.27;6.90;;;10.20;99.90;;;;;;5020227;28;20037;-71
2023/11/20 02:17:32;;;;;;;23.98;6.65;;;10.20;99.90;;;;;;5023025;28;20095;-71
2023/11/20 02:20:00;;;;;;;20.80;6.65;;;10.20;99.90;;;;;;5019661;28;20072;-71
2023/11/20 02:22:27;;;;;;;17.95;5.78;;;10.20;99.90;;;;;;5022039;28;20741;-71
2023/11/20 02:24:54;;;;;;;24.15;8.40;;;10.10;99.90;;;;;;5015908;28;20041;-70
2023/11/20 02:27:36;;;;;;;16.73;6.35;;;10.10;99.90;;;;;;5019126;28;20051;-74
2023/11/20 02:30:04;;;;;;;15.20;6.32;;;10.10;99.90;;;;;;5016553;28;20069;-74
2023/11/20 02:32:32;;;;;;;18.23;7.07;;;10.10;99.90;;;;;;5019565;28;20237;-75
2023/11/20 02:34:59;;;;;;;17.25;5.65;;;10.10;99.90;;;;;;5018278;28;20084;-74
2023/11/20 02:37:29;;;;;;;19.15;7.68;;;10.00;99.90;;;;;;5015765;28;20107;-73
2023/11/20 02:39:55;;;;;;;20.42;7.70;;;10.00;99.90;;;;;;5023431;28;20052;-74
2023/11/20 02:42:22;;;;;;;23.73;7.78;;;10.00;99.90;;;;;;5016566;28;20069;-73
2023/11/20 02:44:53;;;;;;;19.00;7.30;;;10.00;99.90;;;;;;5018243;28;20646;-74
2023/11/20 02:47:22;;;;;;;27.13;8.65;;;10.00;99.90;;;;;;5041984;28;20131;-75
2023/11/20 02:49:49;;;;;;;27.58;8.55;;;10.00;99.90;;;;;;5020280;28;20055;-74
2023/11/20 02:52:16;;;;;;;22.77;7.60;;;10.00;99.90;;;;;;5019281;28;20634;-73
2023/11/20 02:54:44;;;;;;;18.33;8.48;;;10.00;99.90;;;;;;5004384;28;20605;-73
2023/11/20 02:57:11;;;;;;;17.38;7.50;;;10.00;99.90;;;;;;5030802;28;20061;-72
2023/11/20 02:59:38;;;;;;;23.30;8.77;;;10.00;99.90;;;;;;5029219;28;20041;-71
2023/11/20 03:02:05;;;;;;;23.63;7.68;;;10.00;99.90;;;;;;5022800;28;20044;-72
2023/11/20 03:04:33;;;;;;;15.63;7.07;;;9.90;99.90;;;;;;5024163;28;20041;-72
2023/11/20 03:07:00;;;;;;;15.35;6.35;;;9.90;99.90;;;;;;5014587;28;21017;-72
2023/11/20 03:09:27;;;;;;;20.95;7.25;;;9.90;99.90;;;;;;5029191;28;20410;-71
2023/11/20 03:11:54;;;;;;;20.08;7.38;;;9.90;99.90;;;;;;5029724;28;20045;-72
2023/11/20 03:14:21;;;;;;;25.00;7.13;;;10.00;99.90;;;;;;5032381;28;20098;-72
2023/11/20 03:16:48;;;;;;;26.25;7.55;;;9.90;99.90;;;;;;5022190;28;20148;-71
2023/11/20 03:19:15;;;;;;;24.42;9.02;;;9.90;99.90;;;;;;5026274;28;20050;-70
2023/11/20 03:21:43;;;;;;;21.80;6.53;;;9.90;99.90;;;;;;5034682;28;20048;-72
2023/11/20 03:24:10;;;;;;;18.35;8.00;;;9.90;99.90;;;;;;5024943;28;20041;-71
2023/11/20 03:26:38;;;;;;;23.45;8.68;;;9.90;99.90;;;;;;5023325;28;20052;-71
2023/11/20 03:29:05;;;;;;;22.20;8.48;;;9.90;99.90;;;;;;5025752;28;21441;-71
2023/11/20 03:31:37;;;;;;;24.00;8.52;;;9.90;99.90;;;;;;5018758;28;21429;-74
2023/11/20 03:34:04;;;;;;;30.35;8.85;;;9.80;99.90;;;;;;5017792;28;20684;-73
2023/11/20 03:36:35;;;;;;;27.90;9.20;;;9.90;99.90;;;;;;5045763;28;20115;-73
2023/11/20 03:39:02;;;;;;;19.25;8.65;;;9.80;99.90;;;;;;5023562;28;20063;-74
2023/11/20 03:41:29;;;;;;;26.70;8.55;;;9.80;99.90;;;;;;5022227;28;20045;-74
2023/11/20 03:43:56;;;;;;;28.15;10.13;;;9.80;99.90;;;;;;5019156;28;20041;-74
2023/11/20 03:46:23;;;;;;;21.48;8.20;;;9.80;99.90;;;;;;5025030;28;20041;-74
2023/11/20 03:48:51;;;;;;;22.10;7.30;;;9.80;99.90;;;;;;5024098;28;20037;-73
2023/11/20 03:51:18;;;;;;;18.67;8.15;;;9.80;99.90;;;;;;5043896;28;20124;-73
2023/11/20 03:53:46;;;;;;;18.45;7.20;;;9.80;99.90;;;;;;5027079;28;20045;-74
2023/11/20 03:56:14;;;;;;;20.70;9.90;;;9.80;99.90;;;;;;5015656;28;20501;-74
2023/11/20 03:58:44;;;;;;;16.95;9.73;;;9.80;99.90;;;;;;5025829;28;20090;-74
2023/11/20 04:01:11;;;;;;;22.88;9.32;;;9.80;99.90;;;;;;5019787;28;20045;-74
2023/11/20 04:03:39;;;;;;;20.13;8.13;;;9.80;99.90;;;;;;5029476;28;20243;-74
2023/11/20 04:06:06;;;;;;;17.23;9.07;;;9.70;99.90;;;;;;5023627;28;20044;-73
2023/11/20 04:08:33;;;;;;;27.17;10.90;;;9.80;99.90;;;;;;5012859;28;20049;-73
2023/11/20 04:11:02;;;;;;;23.80;10.13;;;9.80;99.90;;;;;;5022300;28;20041;-72
2023/11/20 04:13:30;;;;;;;26.95;10.57;;;9.80;99.90;;;;;;5003168;28;20565;-72
2023/11/20 04:15:57;;;;;;;19.55;9.38;;;9.80;99.90;;;;;;5017779;28;20045;-73
2023/11/20 04:18:25;;;;;;;23.60;9.70;;;9.80;99.90;;;;;;5020257;28;20045;-73
2023/11/20 04:20:53;;;;;;;26.58;11.48;;;9.80;99.90;;;;;;5027245;28;20120;-73
2023/11/20 04:23:20;;;;;;;23.42;10.52;;;9.80;99.90;;;;;;5031762;28;20052;-72
2023/11/20 04:25:47;;;;;;;24.35;10.60;;;9.80;99.90;;;;;;5023824;28;20453;-72
2023/11/20 04:28:16;;;;;;;19.00;9.93;;;9.70;99.90;;;;;;5022194;28;20073;-73
2023/11/20 04:30:43;;;;;;;25.27;9.70;;;9.70;99.90;;;;;;5022030;28;20526;-73
2023/11/20 04:33:11;;;;;;;16.63;8.95;;;9.70;99.90;;;;;;5024674;28;20058;-73
2023/11/20 04:35:38;;;;;;;20.40;9.38;;;9.70;99.90;;;;;;5023093;28;20041;-73
2023/11/20 04:38:04;;;;;;;25.40;10.48;;;9.70;99.90;;;;;;5017593;28;20123;-74
2023/11/20 04:40:31;;;;;;;31.58;10.50;;;9.70;99.90;;;;;;5024147;28;20125;-73
2023/11/20 04:42:58;;;;;;;28.70;11.35;;;9.70;99.90;;;;;;5041595;28;20084;-73
2023/11/20 04:45:25;;;;;;;24.50;12.27;;;9.70;99.90;;;;;;5022085;28;20044;-73
2023/11/20 04:47:52;;;;;;;34.83;14.45;;;9.70;99.90;;;;;;5022972;28;20053;-73
2023/11/20 04:50:19;;;;;;;36.88;12.98;;;9.70;99.90;;;;;;5022518;28;20033;-73
2023/11/20 04:52:45;;;;;;;25.90;12.05;;;9.70;99.90;;;;;;5023472;28;20041;-73
2023/11/20 04:55:12;;;;;;;35.20;13.48;;;9.70;99.90;;;;;;5024025;28;20052;-73
2023/11/20 04:57:39;;;;;;;32.67;13.38;;;9.70;99.90;;;;;;5026277;28;20702;-73
2023/11/20 05:00:08;;;;;;;30.48;12.35;;;9.70;99.90;;;;;;5021460;28;20033;-72
2023/11/20 05:02:35;;;;;;;30.83;12.10;;;9.70;99.90;;;;;;5024733;28;20399;-72
2023/11/20 05:05:01;;;;;;;25.60;11.02;;;9.70;99.90;;;;;;5023228;28;20053;-71
2023/11/20 05:07:29;;;;;;;30.13;11.10;;;9.70;99.90;;;;;;5023307;28;20139;-72
2023/11/20 05:09:57;;;;;;;24.30;10.43;;;9.70;99.90;;;;;;5021932;28;20041;-72
2023/11/20 05:12:23;;;;;;;24.48;10.52;;;9.70;99.90;;;;;;5029459;28;20033;-73
2023/11/20 05:14:53;;;;;;;23.58;12.02;;;9.70;99.90;;;;;;5009327;28;20052;-72
2023/11/20 05:17:20;;;;;;;22.70;9.32;;;9.70;99.90;;;;;;5016819;28;20057;-72
2023/11/20 05:19:47;;;;;;;21.55;8.95;;;9.70;99.90;;;;;;5006575;28;20064;-72
2023/11/20 05:22:15;;;;;;;23.63;9.50;;;9.70;99.90;;;;;;5019140;28;20500;-72
2023/11/20 05:24:43;;;;;;;31.23;11.00;;;9.70;99.90;;;;;;5003566;28;20052;-72
2023/11/20 05:27:11;;;;;;;19.15;8.82;;;9.70;99.90;;;;;;5005897;28;20043;-74
2023/11/20 05:29:38;;;;;;;28.98;11.38;;;9.60;99.90;;;;;;5027263;28;20045;-73
2023/11/20 05:32:06;;;;;;;26.00;10.57;;;9.70;99.90;;;;;;5026048;28;20064;-72
2023/11/20 05:34:33;;;;;;;26.63;10.15;;;9.70;99.90;;;;;;5017698;28;20391;-72
2023/11/20 05:37:01;;;;;;;25.60;9.52;;;9.70;99.90;;;;;;5022368;28;20045;-72
2023/11/20 05:39:28;;;;;;;18.30;9.60;;;9.70;99.90;;;;;;5024703;28;20064;-72
2023/11/20 05:41:55;;;;;;;28.85;9.65;;;9.70;99.90;;;;;;5022704;28;20111;-72
2023/11/20 05:44:22;;;;;;;20.30;8.40;;;9.70;99.90;;;;;;5023786;28;20052;-73
2023/11/20 05:46:49;;;;;;;13.93;7.57;;;9.70;99.90;;;;;;5022203;28;20168;-73
2023/11/20 05:49:16;;;;;;;20.50;9.10;;;9.70;99.90;;;;;;5022840;28;20062;-73
2023/11/20 05:51:43;;;;;;;19.42;8.95;;;9.70;99.90;;;;;;5024419;28;20052;-73
2023/11/20 05:54:09;;;;;;;21.02;9.95;;;9.70;99.90;;;;;;5020775;28;20280;-74
2023/11/20 05:56:36;;;;;;;22.63;10.50;;;9.70;99.90;;;;;;5022155;28;20041;-74
2023/11/20 05:59:04;;;;;;;22.17;10.05;;;9.70;99.90;;;;;;5024809;28;20145;-73
2023/11/20 06:01:41;;;;;;;28.70;10.98;;;9.70;99.90;;;;;;5023720;28;20052;-72
2023/11/20 06:04:09;;;;;;;21.83;10.90;;;9.70;99.90;;;;;;5023981;28;20037;-73
2023/11/20 06:06:37;;;;;;;17.55;10.10;;;9.60;99.90;;;;;;5001323;28;20128;-74
2023/11/20 06:09:05;;;;;;;26.75;10.10;;;9.70;99.90;;;;;;5022934;28;20053;-73
2023/11/20 06:11:32;;;;;;;24.92;10.23;;;9.70;99.90;;;;;;5022703;28;20410;-73
2023/11/20 06:14:01;;;;;;;29.92;12.43;;;9.70;99.90;;;;;;5003387;28;20059;-73
2023/11/20 06:16:29;;;;;;;36.25;16.58;;;9.70;99.90;;;;;;5024027;28;20517;-73
2023/11/20 06:18:56;;;;;;;39.92;18.15;;;9.70;99.90;;;;;;5018153;28;20049;-73
2023/11/20 06:21:23;;;;;;;42.53;20.10;;;9.70;99.90;;;;;;5027517;28;20036;-72
2023/11/20 06:23:49;;;;;;;41.80;20.00;;;9.70;99.90;;;;;;5021440;28;20808;-73
2023/11/20 06:26:16;;;;;;;48.38;20.27;;;9.70;99.90;;;;;;5021471;28;20043;-73
2023/11/20 06:28:44;;;;;;;41.30;18.35;;;9.70;99.90;;;;;;5025053;28;20454;-74
2023/11/20 06:31:11;;;;;;;43.50;19.35;;;9.70;99.90;;;;;;5021929;28;20122;-74
2023/11/20 06:33:38;;;;;;;52.03;22.38;;;9.70;99.90;;;;;;5024090;28;20049;-74
2023/11/20 06:36:06;;;;;;;47.92;21.77;;;9.70;99.90;;;;;;5020707;28;20038;-73
2023/11/20 06:38:35;;;;;;;52.08;22.77;;;9.70;99.90;;;;;;5024112;28;20072;-73
2023/11/20 06:41:04;;;;;;;47.67;20.65;;;9.70;99.90;;;;;;5021465;28;20073;-73
2023/11/20 06:43:31;;;;;;;45.40;20.60;;;9.70;99.90;;;;;;5029518;28;20041;-74
2023/11/20 06:45:59;;;;;;;41.75;18.27;;;9.70;99.90;;;;;;5021372;28;20109;-74
2023/11/20 06:48:26;;;;;;;33.67;14.93;;;9.60;99.90;;;;;;5028886;28;20045;-73
2023/11/20 06:50:53;;;;;;;44.90;16.48;;;9.60;99.90;;;;;;5005249;28;20095;-73
2023/11/20 06:53:21;;;;;;;33.65;13.00;;;9.60;99.90;;;;;;5026070;28;20048;-72
2023/11/20 06:55:48;;;;;;;22.83;9.15;;;9.60;99.90;;;;;;5019679;28;20161;-73
2023/11/20 06:58:15;;;;;;;20.10;8.55;;;9.60;99.90;;;;;;5022930;28;20045;-73
2023/11/20 07:00:42;;;;;;;22.88;8.85;;;9.60;99.90;;;;;;5023955;28;20075;-73
2023/11/20 07:03:09;;;;;;;17.17;7.95;;;9.60;99.90;;;;;;5023555;28;20542;-71
2023/11/20 07:05:37;;;;;;;28.50;9.25;;;9.60;99.90;;;;;;5024668;28;20190;-72
2023/11/20 07:08:07;;;;;;;23.23;8.85;;;9.60;99.90;;;;;;5010200;28;20076;-71
2023/11/20 07:10:35;;;;;;;18.05;9.45;;;9.60;99.90;;;;;;5024064;28;20776;-71
2023/11/20 07:13:02;;;;;;;20.75;7.82;;;9.60;99.90;;;;;;5024873;28;20060;-72
2023/11/20 07:15:32;;;;;;;16.48;7.47;;;9.60;99.90;;;;;;5024503;28;20055;-72
2023/11/20 07:17:59;;;;;;;14.77;7.47;;;9.70;99.90;;;;;;5005344;28;20065;-72
2023/11/20 07:20:27;;;;;;;19.10;8.32;;;9.70;99.90;;;;;;5024879;28;20041;-72
2023/11/20 07:23:00;;;;;;;19.05;8.13;;;9.70;99.90;;;;;;5025120;28;20929;-72
2023/11/20 07:25:33;;;;;;;16.35;7.63;;;9.70;99.90;;;;;;5023883;28;20045;-72
2023/11/20 07:28:03;;;;;;;18.52;7.97;;;9.70;99.90;;;;;;5019969;28;20049;-72
2023/11/20 07:30:32;;;;;;;34.10;9.38;;;9.70;99.90;;;;;;5025455;28;20091;-72
2023/11/20 07:33:00;;;;;;;19.63;8.60;;;9.70;99.90;;;;;;5019466;28;20049;-73
2023/11/20 07:35:27;;;;;;;18.48;6.68;;;9.70;99.90;;;;;;5023458;28;20140;-73
2023/11/20 07:37:54;;;;;;;19.92;8.45;;;9.70;99.90;;;;;;5028032;28;20168;-74
2023/11/20 07:40:21;;;;;;;19.38;8.55;;;9.70;99.90;;;;;;5026513;28;22433;-73
2023/11/20 07:42:48;;;;;;;20.13;8.77;;;9.70;99.90;;;;;;5027936;28;20037;-73
2023/11/20 07:45:15;;;;;;;19.83;7.47;;;9.70;99.90;;;;;;5020346;28;20430;-72
2023/11/20 07:47:43;;;;;;;16.67;8.25;;;9.70;99.90;;;;;;5024145;28;21413;-72
2023/11/20 07:50:10;;;;;;;17.88;8.07;;;9.70;99.90;;;;;;5028869;28;20110;-73
2023/11/20 07:52:38;;;;;;;21.10;9.10;;;9.70;99.90;;;;;;5014904;28;20052;-71
2023/11/20 07:55:07;;;;;;;21.55;7.88;;;9.70;99.90;;;;;;5027469;28;20045;-75
2023/11/20 07:57:35;;;;;;;18.05;8.00;;;9.70;99.90;;;;;;5027723;28;20049;-74
2023/11/20 08:00:04;;;;;;;16.02;7.65;;;9.70;99.90;;;;;;5024747;28;20632;-73
2023/11/20 08:02:38;;;;;;;23.48;8.68;;;9.70;99.90;;;;;;5028431;28;20044;-73
2023/11/20 08:05:08;;;;;;;23.95;10.13;;;9.70;99.90;;;;;;5024169;28;20095;-73
2023/11/20 08:07:36;;;;;;;16.98;7.57;;;9.70;99.90;;;;;;5025433;28;20041;-74
2023/11/20 08:10:06;;;;;;;22.50;8.77;;;9.70;99.90;;;;;;5025778;28;20049;-74
2023/11/20 08:12:36;;;;;;;17.83;7.82;;;9.70;99.90;;;;;;5027772;28;20491;-73
2023/11/20 08:15:05;;;;;;;15.50;9.82;;;9.70;99.90;;;;;;5023329;28;20057;-71
2023/11/20 08:17:33;;;;;;;13.20;7.25;;;9.70;99.90;;;;;;5024770;28;20049;-71
2023/11/20 08:20:00;;;;;;;16.42;8.10;;;9.70;99.90;;;;;;5023544;28;20132;-71
2023/11/20 08:22:27;;;;;;;16.27;8.02;;;9.70;99.90;;;;;;5027807;28;20699;-72
2023/11/20 08:24:54;;;;;;;19.25;8.32;;;9.60;99.90;;;;;;5028646;28;20060;-71
2023/11/20 08:27:20;;;;;;;13.50;6.80;;;9.60;99.90;;;;;;5025149;28;20432;-73
2023/11/20 08:29:47;;;;;;;18.40;7.82;;;9.60;99.90;;;;;;5026787;28;20048;-71
2023/11/20 08:32:14;;;;;;;18.77;7.55;;;9.50;99.90;;;;;;5024928;28;20041;-72
2023/11/20 08:34:41;;;;;;;19.58;9.70;;;9.50;99.90;;;;;;5027986;28;20045;-71
2023/11/20 08:37:08;;;;;;;19.95;8.60;;;9.50;99.90;;;;;;5021986;28;20053;-73
2023/11/20 08:39:35;;;;;;;18.83;9.68;;;9.60;99.90;;;;;;5016083;28;20040;-74
2023/11/20 08:42:03;;;;;;;21.83;9.73;;;9.50;99.90;;;;;;5024456;28;20053;-73
2023/11/20 08:44:30;;;;;;;24.10;9.60;;;9.50;99.90;;;;;;5014807;28;20045;-73
2023/11/20 08:46:59;;;;;;;19.77;9.95;;;9.40;99.90;;;;;;5025323;28;20847;-73
2023/11/20 08:49:29;;;;;;;20.00;10.25;;;9.40;99.90;;;;;;5026150;28;20238;-73
2023/11/20 08:51:56;;;;;;;25.80;10.50;;;9.40;99.90;;;;;;5025040;28;20698;-72
2023/11/20 08:54:32;;;;;;;25.77;10.48;;;9.40;99.90;;;;;;5048787;28;20037;-72
2023/11/20 08:56:59;;;;;;;17.95;9.65;;;9.40;99.90;;;;;;5024428;28;20049;-73
2023/11/20 08:59:26;;;;;;;21.30;9.30;;;9.40;99.90;;;;;;5025915;28;20041;-74
2023/11/20 09:01:56;;;;;;;17.77;9.02;;;9.40;99.90;;;;;;5028254;28;20156;-73
2023/11/20 09:04:24;;;;;;;16.83;8.00;;;9.40;99.90;;;;;;5027389;28;20036;-73
2023/11/20 09:06:51;;;;;;;16.23;7.80;;;9.40;99.90;;;;;;5008964;28;20677;-72
2023/11/20 09:09:18;;;;;;;17.02;7.88;;;9.50;99.90;;;;;;5023429;28;20047;-73
2023/11/20 09:11:45;;;;;;;16.98;8.32;;;9.50;99.90;;;;;;5030048;28;20182;-71
2023/11/20 09:14:12;;;;;;;19.60;9.50;;;9.50;99.90;;;;;;5022026;28;20045;-71
2023/11/20 09:16:39;;;;;;;19.92;9.45;;;9.60;99.90;;;;;;5009409;28;20095;-72
2023/11/20 09:19:06;;;;;;;20.75;11.50;;;9.60;99.90;;;;;;5019724;28;20040;-71
2023/11/20 09:21:33;;;;;;;25.60;9.88;;;9.60;99.90;;;;;;5024835;28;20048;-71
2023/11/20 09:23:59;;;;;;;18.73;9.77;;;9.60;99.90;;;;;;5025217;28;20114;-72
2023/11/20 09:26:26;;;;;;;28.38;10.30;;;9.70;99.90;;;;;;5022602;28;20046;-72
2023/11/20 09:28:53;;;;;;;22.80;10.25;;;9.80;99.90;;;;;;5020900;28;20052;-71
2023/11/20 09:31:21;;;;;;;23.88;9.05;;;9.80;99.90;;;;;;5008375;28;20037;-71
2023/11/20 09:33:49;;;;;;;16.55;9.02;;;9.80;99.90;;;;;;5025734;28;20033;-71
2023/11/20 09:36:18;;;;;;;28.42;10.35;;;9.80;99.90;;;;;;5039905;28;20672;-71
2023/11/20 09:38:45;;;;;;;22.45;12.52;;;9.80;99.90;;;;;;5026580;28;20183;-71
2023/11/20 09:41:13;;;;;;;26.00;12.68;;;9.80;99.90;;;;;;5021234;28;20254;-71
2023/11/20 09:43:44;;;;;;;31.92;12.35;;;9.90;99.90;;;;;;5025263;28;20422;-72
2023/11/20 09:46:13;;;;;;;12.80;8.63;;;10.00;99.90;;;;;;5019915;28;20041;-71
2023/11/20 09:48:43;;;;;;;23.00;11.15;;;10.00;99.90;;;;;;5024019;28;20499;-70
2023/11/20 09:51:11;;;;;;;29.50;10.20;;;10.00;99.90;;;;;;5017247;28;20137;-71
2023/11/20 09:53:41;;;;;;;21.02;9.48;;;10.00;99.90;;;;;;5027078;28;20656;-71
2023/11/20 09:56:10;;;;;;;31.40;13.75;;;9.90;99.90;;;;;;5024058;28;20622;-71
2023/11/20 09:58:40;;;;;;;33.58;12.10;;;10.00;99.90;;;;;;5010754;28;20506;-71
2023/11/20 10:01:13;;;;;;;25.33;10.82;;;9.90;99.90;;;;;;5020914;28;20632;-70
2023/11/20 10:03:43;;;;;;;16.92;10.52;;;9.90;99.90;;;;;;5008846;28;20535;-72
2023/11/20 10:06:14;;;;;;;28.42;12.20;;;9.90;99.90;;;;;;5023406;28;20044;-71
2023/11/20 10:08:43;;;;;;;29.33;12.20;;;9.90;99.90;;;;;;5029252;28;20162;-72
2023/11/20 10:11:15;;;;;;;23.77;12.52;;;9.90;99.90;;;;;;5024288;28;20523;-71
2023/11/20 10:13:43;;;;;;;23.73;13.57;;;9.90;99.90;;;;;;5011852;28;20060;-71
2023/11/20 10:16:19;;;;;;;21.58;13.40;;;10.00;99.90;;;;;;4999992;28;20045;-71
2023/11/20 10:18:48;;;;;;;25.88;12.85;;;10.10;99.90;;;;;;5022776;28;20074;-72
2023/11/20 10:21:18;;;;;;;25.55;12.30;;;10.10;99.90;;;;;;5018795;28;20504;-72
2023/11/20 10:23:44;;;;;;;29.70;12.27;;;10.30;99.90;;;;;;5008794;28;20110;-71
2023/11/20 10:26:12;;;;;;;20.67;13.43;;;10.30;99.90;;;;;;5001186;28;20064;-72
2023/11/20 10:28:40;;;;;;;24.88;15.60;;;10.20;99.90;;;;;;5025013;28;20114;-71
2023/11/20 10:31:07;;;;;;;27.15;15.43;;;10.20;99.90;;;;;;5043391;28;20075;-71
2023/11/20 10:33:35;;;;;;;20.98;14.18;;;10.20;99.90;;;;;;5021965;28;20076;-70
2023/11/20 10:36:17;;;;;;;27.55;13.63;;;10.20;99.90;;;;;;5008919;28;20037;-71
2023/11/20 10:38:44;;;;;;;26.27;13.98;;;10.10;99.90;;;;;;5025255;28;20444;-71
2023/11/20 10:41:11;;;;;;;22.02;14.77;;;10.20;99.90;;;;;;5023333;28;20091;-72
2023/11/20 10:43:40;;;;;;;22.00;13.80;;;10.10;99.90;;;;;;5023258;28;20046;-71
2023/11/20 10:46:08;;;;;;;22.85;14.55;;;10.10;99.90;;;;;;5039719;28;20063;-71
2023/11/20 10:48:36;;;;;;;23.33;14.73;;;10.10;99.90;;;;;;5041325;28;20056;-70
2023/11/20 10:51:09;;;;;;;23.73;14.45;;;10.00;99.90;;;;;;5018811;28;20148;-71
2023/11/20 10:53:42;;;;;;;26.50;16.05;;;10.00;99.90;;;;;;5024831;28;20103;-71
2023/11/20 10:56:12;;;;;;;20.17;15.55;;;9.90;99.90;;;;;;5019789;28;20567;-72
2023/11/20 10:58:40;;;;;;;20.35;16.23;;;10.00;99.90;;;;;;5007527;28;20527;-72
2023/11/20 11:01:07;;;;;;;20.23;16.85;;;10.00;99.90;;;;;;5016514;28;20045;-71
2023/11/20 11:03:36;;;;;;;21.77;15.13;;;10.00;99.90;;;;;;5024387;28;20045;-71
2023/11/20 11:06:10;;;;;;;22.75;15.85;;;10.00;99.90;;;;;;5021600;28;20136;-72
2023/11/20 11:08:45;;;;;;;24.70;16.30;;;10.10;99.90;;;;;;5028672;28;20040;-72
2023/11/20 11:11:14;;;;;;;29.17;18.08;;;10.30;99.90;;;;;;5052282;28;20041;-71
2023/11/20 11:13:43;;;;;;;25.67;16.67;;;10.40;99.90;;;;;;5014157;28;20060;-72
2023/11/20 11:16:20;;;;;;;20.20;17.65;;;10.50;99.90;;;;;;5022461;28;20052;-71
2023/11/20 11:19:01;;;;;;;25.10;17.30;;;10.50;99.90;;;;;;5030667;28;20044;-72
2023/11/20 11:21:35;;;;;;;21.35;17.50;;;10.50;99.90;;;;;;5024193;28;20048;-72
2023/11/20 11:24:05;;;;;;;28.75;20.17;;;10.60;99.90;;;;;;5024676;28;20692;-73
2023/11/20 11:26:53;;;;;;;24.42;19.45;;;10.60;99.90;;;;;;5023661;28;20595;-72
2023/11/20 11:29:24;;;;;;;25.25;19.58;;;10.60;99.90;;;;;;5042241;28;20625;-72
2023/11/20 11:32:28;;;;;;;22.60;20.40;;;10.70;99.90;;;;;;5031901;28;20134;-72
2023/11/20 11:35:01;;;;;;;23.20;21.23;;;10.60;99.90;;;;;;5019228;28;20067;-72
2023/11/20 11:37:58;;;;;;;29.67;23.60;;;10.60;99.90;;;;;;5022880;28;20045;-72
2023/11/20 11:41:00;;;;;;;27.15;24.55;;;10.70;99.90;;;;;;5020196;28;20614;-71
2023/11/20 11:43:37;;;;;;;29.38;26.55;;;11.00;99.90;;;;;;5023972;28;20077;-71
2023/11/20 11:46:04;;;;;;;29.73;26.70;;;10.90;99.90;;;;;;5026901;28;20049;-73
2023/11/20 11:48:35;;;;;;;28.25;25.60;;;10.80;99.90;;;;;;5007731;28;20037;-72
2023/11/20 11:51:04;;;;;;;24.60;22.15;;;10.60;99.90;;;;;;5029241;28;20292;-72
2023/11/20 11:53:32;;;;;;;23.83;21.40;;;10.50;99.90;;;;;;5019635;28;20497;-73
2023/11/20 11:56:07;;;;;;;23.25;20.92;;;10.60;99.90;;;;;;5026181;28;20045;-73
2023/11/20 11:58:36;;;;;;;25.27;22.45;;;10.90;99.90;;;;;;5027905;28;20109;-74
2023/11/20 12:01:17;;;;;;;24.70;22.10;;;11.10;99.90;;;;;;5021609;28;20043;-72
2023/11/20 12:03:45;;;;;;;27.67;24.58;;;11.30;99.90;;;;;;5025364;28;20048;-72
2023/11/20 12:06:12;;;;;;;25.38;22.70;;;11.20;99.90;;;;;;5027856;28;20036;-72
2023/11/20 12:08:39;;;;;;;26.33;22.90;;;11.00;99.90;;;;;;5032009;28;20041;-72
2023/11/20 12:11:10;;;;;;;28.15;23.48;;;11.10;99.90;;;;;;5024171;28;20680;-72
2023/11/20 12:14:04;;;;;;;29.92;26.83;;;11.00;99.90;;;;;;5026118;28;20113;-73
2023/11/20 12:16:36;;;;;;;29.50;24.58;;;10.90;99.90;;;;;;5019120;28;20913;-73
2023/11/20 12:19:03;;;;;;;26.17;23.65;;;10.70;99.90;;;;;;5023153;28;20073;-72
2023/11/20 12:21:30;;;;;;;29.27;24.30;;;10.50;99.90;;;;;;5022494;28;20075;-72
2023/11/20 12:23:57;;;;;;;24.00;21.85;;;10.50;99.90;;;;;;5028644;28;20117;-73
2023/11/20 12:26:25;;;;;;;24.38;21.85;;;10.30;99.90;;;;;;5022415;28;20112;-73
2023/11/20 12:28:53;;;;;;;25.15;22.45;;;10.30;99.90;;;;;;5027928;28;20067;-73
2023/11/20 12:31:20;;;;;;;24.65;22.10;;;10.20;99.90;;;;;;5021966;28;20045;-72
2023/11/20 12:33:50;;;;;;;25.95;21.23;;;10.10;99.90;;;;;;5018093;28;20485;-73
2023/11/20 12:36:18;;;;;;;26.92;23.02;;;10.20;99.90;;;;;;5024264;28;20337;-73
2023/11/20 12:38:46;;;;;;;26.67;23.25;;;10.20;99.90;;;;;;5029737;28;20048;-72
2023/11/20 12:41:17;;;;;;;37.08;22.95;;;10.30;99.90;;;;;;5028302;28;20037;-73
2023/11/20 12:43:48;;;;;;;26.83;24.15;;;10.40;99.90;;;;;;5030122;28;20052;-73
2023/11/20 12:46:17;;;;;;;26.33;24.15;;;10.50;99.90;;;;;;5020734;28;20055;-73